sensor_id;sensor_type;location;lat;lon;timestamp;P1;durP1;ratioP1;P2;durP2;ratioP2
72115;SDS011;59991;52.140;5.428;2024-02-21T00:00:30;9.63;;;3.90;;
72115;SDS011;59991;52.140;5.428;2024-02-21T00:01:02;10.18;;;4.22;;
72115;SDS011;59991;52.140;5.428;2024-02-21T00:01:33;12.95;;;3.78;;
72115;SDS011;59991;52.140;5.428;2024-02-21T00:02:05;13.93;;;5.43;;
72115;SDS011;59991;52.140;5.428;2024-02-21T00:02:37;9.63;;;4.53;;
72115;SDS011;59991;52.140;5.428;2024-02-21T00:03:08;12.07;;;4.65;;
72115;SDS011;59991;52.140;5.428;2024-02-21T00:03:40;15.82;;;4.60;;
72115;SDS011;59991;52.140;5.428;2024-02-21T00:04:12;10.95;;;4.53;;
72115;SDS011;59991;52.140;5.428;2024-02-21T00:04:43;13.20;;;4.60;;
72115;SDS011;59991;52.140;5.428;2024-02-21T00:05:15;17.50;;;4.72;;
72115;SDS011;59991;52.140;5.428;2024-02-21T00:05:47;13.47;;;4.07;;
72115;SDS011;59991;52.140;5.428;2024-02-21T00:06:18;10.68;;;4.28;;
72115;SDS011;59991;52.140;5.428;2024-02-21T00:06:50;12.30;;;4.25;;
72115;SDS011;59991;52.140;5.428;2024-02-21T00:07:21;11.70;;;4.70;;
72115;SDS011;59991;52.140;5.428;2024-02-21T00:07:53;12.60;;;4.57;;
72115;SDS011;59991;52.140;5.428;2024-02-21T00:08:25;11.93;;;4.15;;
72115;SDS011;59991;52.140;5.428;2024-02-21T00:08:57;13.45;;;4.50;;
72115;SDS011;59991;52.140;5.428;2024-02-21T00:09:28;12.77;;;4.78;;
72115;SDS011;59991;52.140;5.428;2024-02-21T00:10:00;14.65;;;3.97;;
72115;SDS011;59991;52.140;5.428;2024-02-21T00:10:31;13.27;;;4.90;;
72115;SDS011;59991;52.140;5.428;2024-02-21T00:11:03;11.50;;;3.50;;
72115;SDS011;59991;52.140;5.428;2024-02-21T00:11:35;9.93;;;3.50;;
72115;SDS011;59991;52.140;5.428;2024-02-21T00:12:07;13.48;;;4.18;;
72115;SDS011;59991;52.140;5.428;2024-02-21T00:12:38;11.02;;;3.83;;
72115;SDS011;59991;52.140;5.428;2024-02-21T00:13:10;13.40;;;4.00;;
72115;SDS011;59991;52.140;5.428;2024-02-21T00:13:41;8.82;;;3.97;;
72115;SDS011;59991;52.140;5.428;2024-02-21T00:14:13;10.57;;;3.70;;
72115;SDS011;59991;52.140;5.428;2024-02-21T00:14:44;17.63;;;3.88;;
72115;SDS011;59991;52.140;5.428;2024-02-21T00:15:16;9.52;;;4.07;;
72115;SDS011;59991;52.140;5.428;2024-02-21T00:15:47;11.82;;;3.95;;
72115;SDS011;59991;52.140;5.428;2024-02-21T00:16:19;10.60;;;4.00;;
72115;SDS011;59991;52.140;5.428;2024-02-21T00:16:50;15.38;;;5.18;;
72115;SDS011;59991;52.140;5.428;2024-02-21T00:17:22;14.38;;;5.13;;
72115;SDS011;59991;52.140;5.428;2024-02-21T00:17:53;13.57;;;4.38;;
72115;SDS011;59991;52.140;5.428;2024-02-21T00:18:25;11.40;;;3.83;;
72115;SDS011;59991;52.140;5.428;2024-02-21T00:19:00;13.65;;;4.57;;
72115;SDS011;59991;52.140;5.428;2024-02-21T00:19:50;14.18;;;4.43;;
72115;SDS011;59991;52.140;5.428;2024-02-21T00:20:22;14.07;;;4.45;;
72115;SDS011;59991;52.140;5.428;2024-02-21T00:20:53;11.77;;;4.60;;
72115;SDS011;59991;52.140;5.428;2024-02-21T00:21:25;13.70;;;4.50;;
72115;SDS011;59991;52.140;5.428;2024-02-21T00:21:56;9.00;;;3.60;;
72115;SDS011;59991;52.140;5.428;2024-02-21T00:22:28;14.95;;;4.40;;
72115;SDS011;59991;52.140;5.428;2024-02-21T00:23:02;13.60;;;5.47;;
72115;SDS011;59991;52.140;5.428;2024-02-21T00:23:34;13.98;;;4.90;;
72115;SDS011;59991;52.140;5.428;2024-02-21T00:24:05;11.40;;;4.70;;
72115;SDS011;59991;52.140;5.428;2024-02-21T00:24:37;12.48;;;3.95;;
72115;SDS011;59991;52.140;5.428;2024-02-21T00:25:08;10.73;;;4.10;;
72115;SDS011;59991;52.140;5.428;2024-02-21T00:25:40;15.57;;;4.55;;
72115;SDS011;59991;52.140;5.428;2024-02-21T00:26:12;13.00;;;4.35;;
72115;SDS011;59991;52.140;5.428;2024-02-21T00:26:44;12.48;;;3.80;;
72115;SDS011;59991;52.140;5.428;2024-02-21T00:27:16;8.77;;;3.83;;
72115;SDS011;59991;52.140;5.428;2024-02-21T00:27:47;13.20;;;4.10;;
72115;SDS011;59991;52.140;5.428;2024-02-21T00:28:19;12.93;;;4.97;;
72115;SDS011;59991;52.140;5.428;2024-02-21T00:28:51;8.68;;;3.67;;
72115;SDS011;59991;52.140;5.428;2024-02-21T00:29:22;9.00;;;3.75;;
72115;SDS011;59991;52.140;5.428;2024-02-21T00:29:54;10.05;;;3.95;;
72115;SDS011;59991;52.140;5.428;2024-02-21T00:30:25;14.20;;;4.65;;
72115;SDS011;59991;52.140;5.428;2024-02-21T00:30:57;11.93;;;4.18;;
72115;SDS011;59991;52.140;5.428;2024-02-21T00:31:28;16.85;;;4.68;;
72115;SDS011;59991;52.140;5.428;2024-02-21T00:31:59;12.52;;;4.35;;
72115;SDS011;59991;52.140;5.428;2024-02-21T00:32:31;14.80;;;4.53;;
72115;SDS011;59991;52.140;5.428;2024-02-21T00:33:06;19.38;;;4.18;;
72115;SDS011;59991;52.140;5.428;2024-02-21T00:33:37;11.27;;;3.95;;
72115;SDS011;59991;52.140;5.428;2024-02-21T00:34:09;13.30;;;4.28;;
72115;SDS011;59991;52.140;5.428;2024-02-21T00:34:41;16.75;;;4.72;;
72115;SDS011;59991;52.140;5.428;2024-02-21T00:35:13;6.43;;;3.65;;
72115;SDS011;59991;52.140;5.428;2024-02-21T00:35:45;10.60;;;4.28;;
72115;SDS011;59991;52.140;5.428;2024-02-21T00:36:17;10.85;;;3.33;;
72115;SDS011;59991;52.140;5.428;2024-02-21T00:36:48;14.40;;;5.45;;
72115;SDS011;59991;52.140;5.428;2024-02-21T00:37:21;12.15;;;4.50;;
72115;SDS011;59991;52.140;5.428;2024-02-21T00:37:53;12.47;;;4.40;;
72115;SDS011;59991;52.140;5.428;2024-02-21T00:38:43;11.98;;;3.95;;
72115;SDS011;59991;52.140;5.428;2024-02-21T00:39:14;10.27;;;3.60;;
72115;SDS011;59991;52.140;5.428;2024-02-21T00:39:46;10.57;;;4.25;;
72115;SDS011;59991;52.140;5.428;2024-02-21T00:40:17;13.40;;;4.03;;
72115;SDS011;59991;52.140;5.428;2024-02-21T00:40:51;12.68;;;3.50;;
72115;SDS011;59991;52.140;5.428;2024-02-21T00:41:23;11.02;;;4.03;;
72115;SDS011;59991;52.140;5.428;2024-02-21T00:41:54;6.72;;;3.47;;
72115;SDS011;59991;52.140;5.428;2024-02-21T00:42:26;15.30;;;4.00;;
72115;SDS011;59991;52.140;5.428;2024-02-21T00:42:57;8.25;;;3.53;;
72115;SDS011;59991;52.140;5.428;2024-02-21T00:43:47;9.30;;;3.47;;
72115;SDS011;59991;52.140;5.428;2024-02-21T00:44:21;9.55;;;3.13;;
72115;SDS011;59991;52.140;5.428;2024-02-21T00:44:53;14.23;;;4.68;;
72115;SDS011;59991;52.140;5.428;2024-02-21T00:45:24;14.05;;;4.00;;
72115;SDS011;59991;52.140;5.428;2024-02-21T00:45:56;9.32;;;3.88;;
72115;SDS011;59991;52.140;5.428;2024-02-21T00:46:27;11.13;;;3.92;;
72115;SDS011;59991;52.140;5.428;2024-02-21T00:46:59;11.07;;;3.25;;
72115;SDS011;59991;52.140;5.428;2024-02-21T00:47:30;9.60;;;3.75;;
72115;SDS011;59991;52.140;5.428;2024-02-21T00:48:02;13.60;;;4.28;;
72115;SDS011;59991;52.140;5.428;2024-02-21T00:48:34;15.18;;;3.60;;
72115;SDS011;59991;52.140;5.428;2024-02-21T00:49:05;11.70;;;4.53;;
72115;SDS011;59991;52.140;5.428;2024-02-21T00:49:38;11.82;;;3.63;;
72115;SDS011;59991;52.140;5.428;2024-02-21T00:50:09;13.02;;;3.80;;
72115;SDS011;59991;52.140;5.428;2024-02-21T00:50:41;6.85;;;4.00;;
72115;SDS011;59991;52.140;5.428;2024-02-21T00:51:13;15.75;;;4.07;;
72115;SDS011;59991;52.140;5.428;2024-02-21T00:52:03;13.00;;;3.92;;
72115;SDS011;59991;52.140;5.428;2024-02-21T00:52:35;20.48;;;4.18;;
72115;SDS011;59991;52.140;5.428;2024-02-21T00:53:06;9.10;;;3.83;;
72115;SDS011;59991;52.140;5.428;2024-02-21T00:53:38;12.55;;;4.05;;
72115;SDS011;59991;52.140;5.428;2024-02-21T00:54:09;14.00;;;3.50;;
72115;SDS011;59991;52.140;5.428;2024-02-21T00:54:41;10.73;;;4.20;;
72115;SDS011;59991;52.140;5.428;2024-02-21T00:55:23;12.52;;;4.20;;
72115;SDS011;59991;52.140;5.428;2024-02-21T00:55:55;15.18;;;4.53;;
72115;SDS011;59991;52.140;5.428;2024-02-21T00:56:28;9.38;;;3.60;;
72115;SDS011;59991;52.140;5.428;2024-02-21T00:57:00;8.82;;;4.15;;
72115;SDS011;59991;52.140;5.428;2024-02-21T00:57:32;10.45;;;3.63;;
72115;SDS011;59991;52.140;5.428;2024-02-21T00:58:03;12.35;;;4.18;;
72115;SDS011;59991;52.140;5.428;2024-02-21T00:58:35;9.32;;;4.13;;
72115;SDS011;59991;52.140;5.428;2024-02-21T00:59:06;14.98;;;5.05;;
72115;SDS011;59991;52.140;5.428;2024-02-21T00:59:38;17.20;;;3.83;;
72115;SDS011;59991;52.140;5.428;2024-02-21T01:00:09;10.23;;;4.10;;
72115;SDS011;59991;52.140;5.428;2024-02-21T01:00:41;15.55;;;4.40;;
72115;SDS011;59991;52.140;5.428;2024-02-21T01:01:31;12.52;;;3.83;;
72115;SDS011;59991;52.140;5.428;2024-02-21T01:02:20;11.57;;;3.97;;
72115;SDS011;59991;52.140;5.428;2024-02-21T01:02:51;13.98;;;3.95;;
72115;SDS011;59991;52.140;5.428;2024-02-21T01:03:59;9.30;;;3.08;;
72115;SDS011;59991;52.140;5.428;2024-02-21T01:04:31;7.43;;;3.72;;
72115;SDS011;59991;52.140;5.428;2024-02-21T01:05:03;17.98;;;4.88;;
72115;SDS011;59991;52.140;5.428;2024-02-21T01:05:35;11.38;;;3.67;;
72115;SDS011;59991;52.140;5.428;2024-02-21T01:06:06;19.52;;;5.43;;
72115;SDS011;59991;52.140;5.428;2024-02-21T01:06:38;9.83;;;3.83;;
72115;SDS011;59991;52.140;5.428;2024-02-21T01:07:10;14.32;;;4.13;;
72115;SDS011;59991;52.140;5.428;2024-02-21T01:07:41;12.68;;;3.75;;
72115;SDS011;59991;52.140;5.428;2024-02-21T01:08:13;14.48;;;4.40;;
72115;SDS011;59991;52.140;5.428;2024-02-21T01:08:45;15.15;;;4.10;;
72115;SDS011;59991;52.140;5.428;2024-02-21T01:09:17;10.90;;;4.65;;
72115;SDS011;59991;52.140;5.428;2024-02-21T01:09:49;11.85;;;4.03;;
72115;SDS011;59991;52.140;5.428;2024-02-21T01:10:22;10.65;;;4.13;;
72115;SDS011;59991;52.140;5.428;2024-02-21T01:10:54;9.80;;;4.18;;
72115;SDS011;59991;52.140;5.428;2024-02-21T01:11:25;11.18;;;3.72;;
72115;SDS011;59991;52.140;5.428;2024-02-21T01:12:00;9.70;;;4.17;;
72115;SDS011;59991;52.140;5.428;2024-02-21T01:12:31;11.25;;;3.90;;
72115;SDS011;59991;52.140;5.428;2024-02-21T01:13:03;10.15;;;3.70;;
72115;SDS011;59991;52.140;5.428;2024-02-21T01:13:35;14.60;;;3.95;;
72115;SDS011;59991;52.140;5.428;2024-02-21T01:14:06;13.27;;;3.80;;
72115;SDS011;59991;52.140;5.428;2024-02-21T01:14:38;11.88;;;4.50;;
72115;SDS011;59991;52.140;5.428;2024-02-21T01:15:09;22.40;;;4.65;;
72115;SDS011;59991;52.140;5.428;2024-02-21T01:15:41;14.93;;;5.03;;
72115;SDS011;59991;52.140;5.428;2024-02-21T01:16:13;9.80;;;4.32;;
72115;SDS011;59991;52.140;5.428;2024-02-21T01:16:44;17.77;;;4.72;;
72115;SDS011;59991;52.140;5.428;2024-02-21T01:17:16;16.90;;;4.07;;
72115;SDS011;59991;52.140;5.428;2024-02-21T01:18:06;12.25;;;3.58;;
72115;SDS011;59991;52.140;5.428;2024-02-21T01:18:38;10.05;;;4.15;;
72115;SDS011;59991;52.140;5.428;2024-02-21T01:19:11;11.82;;;4.05;;
72115;SDS011;59991;52.140;5.428;2024-02-21T01:19:42;13.25;;;4.70;;
72115;SDS011;59991;52.140;5.428;2024-02-21T01:20:14;12.43;;;4.47;;
72115;SDS011;59991;52.140;5.428;2024-02-21T01:20:45;15.80;;;4.10;;
72115;SDS011;59991;52.140;5.428;2024-02-21T01:21:34;18.48;;;4.57;;
72115;SDS011;59991;52.140;5.428;2024-02-21T01:22:06;13.95;;;5.25;;
72115;SDS011;59991;52.140;5.428;2024-02-21T01:22:38;11.98;;;4.32;;
72115;SDS011;59991;52.140;5.428;2024-02-21T01:23:09;14.53;;;5.40;;
72115;SDS011;59991;52.140;5.428;2024-02-21T01:23:40;11.90;;;3.80;;
72115;SDS011;59991;52.140;5.428;2024-02-21T01:24:12;11.27;;;5.10;;
72115;SDS011;59991;52.140;5.428;2024-02-21T01:24:43;15.40;;;5.22;;
72115;SDS011;59991;52.140;5.428;2024-02-21T01:25:51;10.20;;;3.90;;
72115;SDS011;59991;52.140;5.428;2024-02-21T01:26:23;16.42;;;4.65;;
72115;SDS011;59991;52.140;5.428;2024-02-21T01:26:54;12.10;;;4.78;;
72115;SDS011;59991;52.140;5.428;2024-02-21T01:27:26;15.05;;;4.70;;
72115;SDS011;59991;52.140;5.428;2024-02-21T01:28:47;12.65;;;4.50;;
72115;SDS011;59991;52.140;5.428;2024-02-21T01:29:19;15.73;;;5.97;;
72115;SDS011;59991;52.140;5.428;2024-02-21T01:29:51;12.63;;;4.50;;
72115;SDS011;59991;52.140;5.428;2024-02-21T01:30:22;19.08;;;5.50;;
72115;SDS011;59991;52.140;5.428;2024-02-21T01:30:53;14.05;;;4.82;;
72115;SDS011;59991;52.140;5.428;2024-02-21T01:31:25;14.77;;;5.85;;
72115;SDS011;59991;52.140;5.428;2024-02-21T01:31:56;10.88;;;4.57;;
72115;SDS011;59991;52.140;5.428;2024-02-21T01:32:28;12.80;;;5.03;;
72115;SDS011;59991;52.140;5.428;2024-02-21T01:32:59;12.95;;;4.43;;
72115;SDS011;59991;52.140;5.428;2024-02-21T01:33:31;14.73;;;5.50;;
72115;SDS011;59991;52.140;5.428;2024-02-21T01:34:06;14.20;;;5.28;;
72115;SDS011;59991;52.140;5.428;2024-02-21T01:34:37;13.93;;;4.90;;
72115;SDS011;59991;52.140;5.428;2024-02-21T01:35:09;15.93;;;5.97;;
72115;SDS011;59991;52.140;5.428;2024-02-21T01:35:41;11.98;;;4.22;;
72115;SDS011;59991;52.140;5.428;2024-02-21T01:36:12;12.20;;;5.25;;
72115;SDS011;59991;52.140;5.428;2024-02-21T01:36:44;8.32;;;5.57;;
72115;SDS011;59991;52.140;5.428;2024-02-21T01:37:15;14.90;;;5.55;;
72115;SDS011;59991;52.140;5.428;2024-02-21T01:37:47;12.48;;;4.93;;
72115;SDS011;59991;52.140;5.428;2024-02-21T01:38:18;12.70;;;5.18;;
72115;SDS011;59991;52.140;5.428;2024-02-21T01:38:50;9.07;;;4.82;;
72115;SDS011;59991;52.140;5.428;2024-02-21T01:39:22;12.85;;;4.00;;
72115;SDS011;59991;52.140;5.428;2024-02-21T01:39:53;10.33;;;4.53;;
72115;SDS011;59991;52.140;5.428;2024-02-21T01:40:25;15.98;;;4.97;;
72115;SDS011;59991;52.140;5.428;2024-02-21T01:41:15;12.70;;;4.15;;
72115;SDS011;59991;52.140;5.428;2024-02-21T01:41:47;18.95;;;5.00;;
72115;SDS011;59991;52.140;5.428;2024-02-21T01:42:19;12.20;;;4.97;;
72115;SDS011;59991;52.140;5.428;2024-02-21T01:42:50;7.78;;;4.50;;
72115;SDS011;59991;52.140;5.428;2024-02-21T01:43:24;18.83;;;5.20;;
72115;SDS011;59991;52.140;5.428;2024-02-21T01:43:56;14.65;;;4.50;;
72115;SDS011;59991;52.140;5.428;2024-02-21T01:44:28;9.50;;;4.40;;
72115;SDS011;59991;52.140;5.428;2024-02-21T01:45:00;9.85;;;4.38;;
72115;SDS011;59991;52.140;5.428;2024-02-21T01:45:31;13.60;;;5.63;;
72115;SDS011;59991;52.140;5.428;2024-02-21T01:46:03;13.60;;;5.00;;
72115;SDS011;59991;52.140;5.428;2024-02-21T01:46:34;16.00;;;5.05;;
72115;SDS011;59991;52.140;5.428;2024-02-21T01:47:06;14.55;;;5.18;;
72115;SDS011;59991;52.140;5.428;2024-02-21T01:47:39;11.98;;;5.18;;
72115;SDS011;59991;52.140;5.428;2024-02-21T01:48:10;9.50;;;4.60;;
72115;SDS011;59991;52.140;5.428;2024-02-21T01:48:42;10.48;;;4.97;;
72115;SDS011;59991;52.140;5.428;2024-02-21T01:49:14;17.75;;;6.00;;
72115;SDS011;59991;52.140;5.428;2024-02-21T01:49:45;16.05;;;5.65;;
72115;SDS011;59991;52.140;5.428;2024-02-21T01:50:17;11.35;;;5.40;;
72115;SDS011;59991;52.140;5.428;2024-02-21T01:50:49;13.03;;;4.70;;
72115;SDS011;59991;52.140;5.428;2024-02-21T01:51:21;15.88;;;5.57;;
72115;SDS011;59991;52.140;5.428;2024-02-21T01:51:53;10.07;;;4.50;;
72115;SDS011;59991;52.140;5.428;2024-02-21T01:52:25;17.88;;;5.68;;
72115;SDS011;59991;52.140;5.428;2024-02-21T01:52:57;12.90;;;5.68;;
72115;SDS011;59991;52.140;5.428;2024-02-21T01:53:35;15.18;;;5.43;;
72115;SDS011;59991;52.140;5.428;2024-02-21T01:54:09;14.18;;;5.20;;
72115;SDS011;59991;52.140;5.428;2024-02-21T01:55:32;15.30;;;5.20;;
72115;SDS011;59991;52.140;5.428;2024-02-21T01:56:04;13.13;;;5.03;;
72115;SDS011;59991;52.140;5.428;2024-02-21T01:56:37;13.40;;;5.13;;
72115;SDS011;59991;52.140;5.428;2024-02-21T01:57:09;12.45;;;6.40;;
72115;SDS011;59991;52.140;5.428;2024-02-21T01:57:41;14.80;;;5.80;;
72115;SDS011;59991;52.140;5.428;2024-02-21T01:58:14;17.95;;;6.32;;
72115;SDS011;59991;52.140;5.428;2024-02-21T01:58:46;11.43;;;5.47;;
72115;SDS011;59991;52.140;5.428;2024-02-21T01:59:20;13.98;;;4.85;;
72115;SDS011;59991;52.140;5.428;2024-02-21T01:59:52;11.70;;;5.20;;
72115;SDS011;59991;52.140;5.428;2024-02-21T02:00:24;15.90;;;5.32;;
72115;SDS011;59991;52.140;5.428;2024-02-21T02:00:56;11.10;;;5.38;;
72115;SDS011;59991;52.140;5.428;2024-02-21T02:01:29;10.85;;;5.28;;
72115;SDS011;59991;52.140;5.428;2024-02-21T02:02:01;9.63;;;5.30;;
72115;SDS011;59991;52.140;5.428;2024-02-21T02:02:33;14.55;;;5.95;;
72115;SDS011;59991;52.140;5.428;2024-02-21T02:03:05;13.75;;;5.70;;
72115;SDS011;59991;52.140;5.428;2024-02-21T02:03:36;14.43;;;5.70;;
72115;SDS011;59991;52.140;5.428;2024-02-21T02:04:08;22.63;;;5.95;;
72115;SDS011;59991;52.140;5.428;2024-02-21T02:04:58;12.73;;;5.43;;
72115;SDS011;59991;52.140;5.428;2024-02-21T02:05:32;14.10;;;4.78;;
72115;SDS011;59991;52.140;5.428;2024-02-21T02:06:04;14.35;;;5.40;;
72115;SDS011;59991;52.140;5.428;2024-02-21T02:06:37;15.05;;;5.43;;
72115;SDS011;59991;52.140;5.428;2024-02-21T02:07:09;14.30;;;5.38;;
72115;SDS011;59991;52.140;5.428;2024-02-21T02:07:40;11.07;;;5.37;;
72115;SDS011;59991;52.140;5.428;2024-02-21T02:08:13;8.50;;;4.65;;
72115;SDS011;59991;52.140;5.428;2024-02-21T02:08:45;10.88;;;4.85;;
72115;SDS011;59991;52.140;5.428;2024-02-21T02:10:07;14.52;;;5.80;;
72115;SDS011;59991;52.140;5.428;2024-02-21T02:10:39;12.13;;;5.43;;
72115;SDS011;59991;52.140;5.428;2024-02-21T02:11:13;13.35;;;4.60;;
72115;SDS011;59991;52.140;5.428;2024-02-21T02:11:45;15.00;;;5.97;;
72115;SDS011;59991;52.140;5.428;2024-02-21T02:12:16;11.80;;;4.97;;
72115;SDS011;59991;52.140;5.428;2024-02-21T02:12:47;16.13;;;5.75;;
72115;SDS011;59991;52.140;5.428;2024-02-21T02:13:19;11.90;;;5.97;;
72115;SDS011;59991;52.140;5.428;2024-02-21T02:13:50;12.68;;;5.28;;
72115;SDS011;59991;52.140;5.428;2024-02-21T02:14:39;11.30;;;5.22;;
72115;SDS011;59991;52.140;5.428;2024-02-21T02:15:11;14.65;;;5.10;;
72115;SDS011;59991;52.140;5.428;2024-02-21T02:15:44;11.38;;;5.40;;
72115;SDS011;59991;52.140;5.428;2024-02-21T02:16:16;10.75;;;5.32;;
72115;SDS011;59991;52.140;5.428;2024-02-21T02:16:48;10.43;;;5.63;;
72115;SDS011;59991;52.140;5.428;2024-02-21T02:17:19;12.38;;;5.43;;
72115;SDS011;59991;52.140;5.428;2024-02-21T02:17:51;13.13;;;5.10;;
72115;SDS011;59991;52.140;5.428;2024-02-21T02:18:23;16.42;;;6.00;;
72115;SDS011;59991;52.140;5.428;2024-02-21T02:18:55;14.33;;;5.10;;
72115;SDS011;59991;52.140;5.428;2024-02-21T02:19:27;10.70;;;4.75;;
72115;SDS011;59991;52.140;5.428;2024-02-21T02:19:59;12.18;;;6.00;;
72115;SDS011;59991;52.140;5.428;2024-02-21T02:20:30;12.40;;;5.60;;
72115;SDS011;59991;52.140;5.428;2024-02-21T02:21:03;16.08;;;5.53;;
72115;SDS011;59991;52.140;5.428;2024-02-21T02:21:42;17.05;;;5.20;;
72115;SDS011;59991;52.140;5.428;2024-02-21T02:22:28;17.75;;;6.15;;
72115;SDS011;59991;52.140;5.428;2024-02-21T02:23:01;11.00;;;4.90;;
72115;SDS011;59991;52.140;5.428;2024-02-21T02:23:40;13.32;;;5.68;;
72115;SDS011;59991;52.140;5.428;2024-02-21T02:24:13;13.77;;;5.85;;
72115;SDS011;59991;52.140;5.428;2024-02-21T02:24:45;15.10;;;5.63;;
72115;SDS011;59991;52.140;5.428;2024-02-21T02:25:16;13.27;;;5.25;;
72115;SDS011;59991;52.140;5.428;2024-02-21T02:25:48;12.52;;;5.30;;
72115;SDS011;59991;52.140;5.428;2024-02-21T02:26:22;17.17;;;5.80;;
72115;SDS011;59991;52.140;5.428;2024-02-21T02:26:54;10.73;;;5.55;;
72115;SDS011;59991;52.140;5.428;2024-02-21T02:27:25;14.23;;;5.65;;
72115;SDS011;59991;52.140;5.428;2024-02-21T02:27:57;13.45;;;5.63;;
72115;SDS011;59991;52.140;5.428;2024-02-21T02:28:28;10.25;;;5.53;;
72115;SDS011;59991;52.140;5.428;2024-02-21T02:29:03;15.70;;;5.97;;
72115;SDS011;59991;52.140;5.428;2024-02-21T02:29:34;11.13;;;5.30;;
72115;SDS011;59991;52.140;5.428;2024-02-21T02:30:06;16.03;;;5.50;;
72115;SDS011;59991;52.140;5.428;2024-02-21T02:30:38;11.40;;;4.80;;
72115;SDS011;59991;52.140;5.428;2024-02-21T02:31:09;14.98;;;5.93;;
72115;SDS011;59991;52.140;5.428;2024-02-21T02:31:41;13.40;;;5.15;;
72115;SDS011;59991;52.140;5.428;2024-02-21T02:32:12;11.45;;;4.68;;
72115;SDS011;59991;52.140;5.428;2024-02-21T02:32:44;9.73;;;6.13;;
72115;SDS011;59991;52.140;5.428;2024-02-21T02:33:17;14.18;;;5.75;;
72115;SDS011;59991;52.140;5.428;2024-02-21T02:33:49;11.38;;;5.10;;
72115;SDS011;59991;52.140;5.428;2024-02-21T02:34:21;15.13;;;5.75;;
72115;SDS011;59991;52.140;5.428;2024-02-21T02:34:53;15.85;;;5.32;;
72115;SDS011;59991;52.140;5.428;2024-02-21T02:35:24;13.93;;;5.23;;
72115;SDS011;59991;52.140;5.428;2024-02-21T02:36:14;13.55;;;5.13;;
72115;SDS011;59991;52.140;5.428;2024-02-21T02:36:45;13.10;;;5.63;;
72115;SDS011;59991;52.140;5.428;2024-02-21T02:37:19;9.48;;;5.88;;
72115;SDS011;59991;52.140;5.428;2024-02-21T02:38:10;12.77;;;6.10;;
72115;SDS011;59991;52.140;5.428;2024-02-21T02:38:43;13.82;;;5.95;;
72115;SDS011;59991;52.140;5.428;2024-02-21T02:39:14;8.43;;;4.65;;
72115;SDS011;59991;52.140;5.428;2024-02-21T02:39:46;14.35;;;5.53;;
72115;SDS011;59991;52.140;5.428;2024-02-21T02:40:17;17.10;;;5.10;;
72115;SDS011;59991;52.140;5.428;2024-02-21T02:40:49;18.05;;;5.53;;
72115;SDS011;59991;52.140;5.428;2024-02-21T02:41:21;13.43;;;5.97;;
72115;SDS011;59991;52.140;5.428;2024-02-21T02:41:52;15.07;;;5.43;;
72115;SDS011;59991;52.140;5.428;2024-02-21T02:42:24;12.70;;;5.80;;
72115;SDS011;59991;52.140;5.428;2024-02-21T02:42:55;11.68;;;6.97;;
72115;SDS011;59991;52.140;5.428;2024-02-21T02:43:27;12.15;;;6.28;;
72115;SDS011;59991;52.140;5.428;2024-02-21T02:43:58;16.50;;;5.63;;
72115;SDS011;59991;52.140;5.428;2024-02-21T02:44:30;14.45;;;5.57;;
72115;SDS011;59991;52.140;5.428;2024-02-21T02:45:01;17.60;;;6.78;;
72115;SDS011;59991;52.140;5.428;2024-02-21T02:45:33;13.18;;;6.97;;
72115;SDS011;59991;52.140;5.428;2024-02-21T02:46:05;13.63;;;6.72;;
72115;SDS011;59991;52.140;5.428;2024-02-21T02:46:53;15.77;;;5.17;;
72115;SDS011;59991;52.140;5.428;2024-02-21T02:47:25;16.52;;;6.00;;
72115;SDS011;59991;52.140;5.428;2024-02-21T02:47:57;14.38;;;5.82;;
72115;SDS011;59991;52.140;5.428;2024-02-21T02:48:29;12.43;;;5.55;;
72115;SDS011;59991;52.140;5.428;2024-02-21T02:49:00;19.00;;;5.85;;
72115;SDS011;59991;52.140;5.428;2024-02-21T02:49:32;10.43;;;5.53;;
72115;SDS011;59991;52.140;5.428;2024-02-21T02:50:04;14.68;;;5.70;;
72115;SDS011;59991;52.140;5.428;2024-02-21T02:50:36;12.30;;;6.00;;
72115;SDS011;59991;52.140;5.428;2024-02-21T02:51:07;13.13;;;5.80;;
72115;SDS011;59991;52.140;5.428;2024-02-21T02:51:42;21.48;;;6.90;;
72115;SDS011;59991;52.140;5.428;2024-02-21T02:52:14;15.53;;;6.20;;
72115;SDS011;59991;52.140;5.428;2024-02-21T02:52:46;13.25;;;6.55;;
72115;SDS011;59991;52.140;5.428;2024-02-21T02:53:17;12.27;;;6.88;;
72115;SDS011;59991;52.140;5.428;2024-02-21T02:53:49;15.63;;;5.88;;
72115;SDS011;59991;52.140;5.428;2024-02-21T02:54:20;11.65;;;5.75;;
72115;SDS011;59991;52.140;5.428;2024-02-21T02:54:52;9.52;;;5.90;;
72115;SDS011;59991;52.140;5.428;2024-02-21T02:55:26;14.73;;;6.65;;
72115;SDS011;59991;52.140;5.428;2024-02-21T02:56:34;12.13;;;5.38;;
72115;SDS011;59991;52.140;5.428;2024-02-21T02:57:05;17.33;;;5.50;;
72115;SDS011;59991;52.140;5.428;2024-02-21T02:57:38;14.20;;;6.28;;
72115;SDS011;59991;52.140;5.428;2024-02-21T02:58:09;14.47;;;6.63;;
72115;SDS011;59991;52.140;5.428;2024-02-21T02:58:42;10.77;;;6.75;;
72115;SDS011;59991;52.140;5.428;2024-02-21T02:59:31;11.30;;;4.93;;
72115;SDS011;59991;52.140;5.428;2024-02-21T03:00:04;12.65;;;6.53;;
72115;SDS011;59991;52.140;5.428;2024-02-21T03:00:38;10.57;;;5.60;;
72115;SDS011;59991;52.140;5.428;2024-02-21T03:01:10;14.27;;;6.10;;
72115;SDS011;59991;52.140;5.428;2024-02-21T03:01:42;17.60;;;5.75;;
72115;SDS011;59991;52.140;5.428;2024-02-21T03:02:14;15.20;;;5.78;;
72115;SDS011;59991;52.140;5.428;2024-02-21T03:02:46;16.70;;;5.78;;
72115;SDS011;59991;52.140;5.428;2024-02-21T03:03:19;14.05;;;5.85;;
72115;SDS011;59991;52.140;5.428;2024-02-21T03:03:51;9.53;;;5.17;;
72115;SDS011;59991;52.140;5.428;2024-02-21T03:04:22;15.90;;;7.32;;
72115;SDS011;59991;52.140;5.428;2024-02-21T03:04:54;9.65;;;5.28;;
72115;SDS011;59991;52.140;5.428;2024-02-21T03:05:25;7.72;;;5.00;;
72115;SDS011;59991;52.140;5.428;2024-02-21T03:05:57;13.73;;;5.82;;
72115;SDS011;59991;52.140;5.428;2024-02-21T03:06:29;12.55;;;6.05;;
72115;SDS011;59991;52.140;5.428;2024-02-21T03:07:00;8.43;;;5.35;;
72115;SDS011;59991;52.140;5.428;2024-02-21T03:07:32;10.82;;;6.13;;
72115;SDS011;59991;52.140;5.428;2024-02-21T03:08:03;10.48;;;6.80;;
72115;SDS011;59991;52.140;5.428;2024-02-21T03:08:38;12.90;;;5.30;;
72115;SDS011;59991;52.140;5.428;2024-02-21T03:09:11;9.73;;;5.47;;
72115;SDS011;59991;52.140;5.428;2024-02-21T03:09:43;12.68;;;5.70;;
72115;SDS011;59991;52.140;5.428;2024-02-21T03:10:14;15.63;;;6.40;;
72115;SDS011;59991;52.140;5.428;2024-02-21T03:10:48;13.85;;;6.00;;
72115;SDS011;59991;52.140;5.428;2024-02-21T03:11:20;16.25;;;6.95;;
72115;SDS011;59991;52.140;5.428;2024-02-21T03:11:52;8.30;;;4.80;;
72115;SDS011;59991;52.140;5.428;2024-02-21T03:12:28;9.60;;;4.68;;
72115;SDS011;59991;52.140;5.428;2024-02-21T03:13:18;13.48;;;5.57;;
72115;SDS011;59991;52.140;5.428;2024-02-21T03:14:07;10.15;;;5.35;;
72115;SDS011;59991;52.140;5.428;2024-02-21T03:14:38;11.00;;;4.82;;
72115;SDS011;59991;52.140;5.428;2024-02-21T03:15:10;14.53;;;5.93;;
72115;SDS011;59991;52.140;5.428;2024-02-21T03:15:41;12.43;;;5.25;;
72115;SDS011;59991;52.140;5.428;2024-02-21T03:16:13;13.32;;;5.53;;
72115;SDS011;59991;52.140;5.428;2024-02-21T03:16:48;13.70;;;5.53;;
72115;SDS011;59991;52.140;5.428;2024-02-21T03:17:22;17.75;;;5.15;;
72115;SDS011;59991;52.140;5.428;2024-02-21T03:18:12;18.05;;;5.10;;
72115;SDS011;59991;52.140;5.428;2024-02-21T03:18:44;13.45;;;4.82;;
72115;SDS011;59991;52.140;5.428;2024-02-21T03:19:16;11.35;;;5.00;;
72115;SDS011;59991;52.140;5.428;2024-02-21T03:19:48;13.90;;;4.85;;
72115;SDS011;59991;52.140;5.428;2024-02-21T03:20:21;11.55;;;4.95;;